createdAt,value
2022-08-22T00:00:43.718Z,99749.44
2022-08-22T00:02:57.439Z,99722.85
2022-08-22T00:03:22.922Z,99742.38
2022-08-22T00:06:04.186Z,99745.84
2022-08-22T00:08:42.721Z,99748.41
2022-08-22T00:11:22.258Z,99753.75
2022-08-22T00:14:01.407Z,99752.09
2022-08-22T00:16:39.086Z,99749.61
2022-08-22T00:19:17.672Z,99753.23
2022-08-22T00:21:54.796Z,99755.94
2022-08-22T00:24:31.474Z,99758.66
2022-08-22T00:27:07.429Z,99756.98
2022-08-22T00:29:46.251Z,99759.64
2022-08-22T00:32:22.533Z,99763.23
2022-08-22T00:34:59.801Z,99761.48
2022-08-22T00:37:36.935Z,99755.28
2022-08-22T00:40:15.891Z,99749.98
2022-08-22T00:43:15.776Z,99758.83
2022-08-22T00:46:02.302Z,99756.22
2022-08-22T00:49:12.818Z,99712.62
2022-08-22T00:52:00.711Z,99758.09
2022-08-22T00:54:43.447Z,99752.06
2022-08-22T00:57:46.571Z,99757.44
2022-08-22T01:00:22.010Z,99767.17
2022-08-22T01:03:22.316Z,99751.32
2022-08-22T01:06:05.442Z,99750.50
2022-08-22T01:08:47.766Z,99759.34
2022-08-22T01:11:31.195Z,99755.80
2022-08-22T01:14:16.600Z,99754.91
2022-08-22T01:17:13.238Z,99740.14
2022-08-22T01:20:21.756Z,99768.14
2022-08-22T01:23:28.642Z,99760.23
2022-08-22T01:26:31.530Z,99760.28
2022-08-22T01:29:37.388Z,99765.53
2022-08-22T01:33:06.595Z,99776.12
2022-08-22T01:39:35.449Z,99787.93
2022-08-22T01:42:39.534Z,99781.19
2022-08-22T01:45:39.047Z,99770.41
2022-08-22T01:48:15.386Z,99770.40
2022-08-22T01:50:51.166Z,99782.75
2022-08-22T01:53:28.167Z,99772.11
2022-08-22T01:56:03.010Z,99769.30
2022-08-22T01:58:38.640Z,99762.95
2022-08-22T02:01:20.330Z,99756.06
2022-08-22T02:04:00.998Z,99770.23
2022-08-22T02:06:42.293Z,99774.77
2022-08-22T02:09:24.335Z,99774.92
2022-08-22T02:12:00.365Z,99781.20
2022-08-22T02:14:41.825Z,99773.44
2022-08-22T02:17:19.916Z,99778.73
2022-08-22T02:19:58.253Z,99778.78
2022-08-22T02:22:44.795Z,99782.39
2022-08-22T02:25:19.482Z,99777.17
2022-08-22T02:27:57.602Z,99785.94
2022-08-22T02:30:35.197Z,99779.63
2022-08-22T02:33:11.457Z,99768.03
2022-08-22T02:35:48.782Z,99755.44
2022-08-22T02:38:28.492Z,99753.41
2022-08-22T02:41:10.589Z,99758.45
2022-08-22T02:43:47.780Z,99740.55
2022-08-22T02:46:29.015Z,99740.38
2022-08-22T02:49:06.869Z,99755.42
2022-08-22T02:51:43.443Z,99745.84
2022-08-22T02:54:21.217Z,99756.83
2022-08-22T02:56:54.463Z,99752.88
2022-08-22T02:59:34.579Z,99750.19
2022-08-22T03:05:23.273Z,99738.61
2022-08-22T03:08:00.413Z,99757.31
2022-08-22T03:10:38.176Z,99752.02
2022-08-22T03:13:14.262Z,99757.31
2022-08-22T03:15:50.089Z,99768.69
2022-08-22T03:18:27.564Z,99786.48
2022-08-22T03:21:03.736Z,99790.30
2022-08-22T03:23:40.639Z,99787.80
2022-08-22T03:26:17.794Z,99776.28
2022-08-22T03:28:58.871Z,99785.98
2022-08-22T03:31:31.022Z,99791.38
2022-08-22T03:34:22.924Z,99792.39
2022-08-22T03:37:06.701Z,99789.73
2022-08-22T03:39:50.031Z,99784.34
2022-08-22T03:43:00.846Z,99778.89
2022-08-22T03:46:17.817Z,99793.69
2022-08-22T03:49:23.821Z,99799.55
2022-08-22T03:52:14.116Z,99787.03
2022-08-22T03:55:12.616Z,99793.80
2022-08-22T03:58:15.860Z,99786.63
2022-08-22T04:04:23.934Z,99781.84
2022-08-22T04:07:28.329Z,99791.72
2022-08-22T04:13:36.302Z,99781.45
2022-08-22T04:16:23.904Z,99787.96
2022-08-22T04:19:01.987Z,99797.63
2022-08-22T04:22:12.284Z,99795.66
2022-08-22T04:25:05.863Z,99787.75
2022-08-22T04:27:40.697Z,99798.34
2022-08-22T04:30:17.876Z,99793.86
2022-08-22T04:32:57.662Z,99792.02
2022-08-22T04:35:34.287Z,99798.30
2022-08-22T04:38:11.639Z,99799.24
2022-08-22T04:40:48.170Z,99782.44
2022-08-22T04:43:25.377Z,99777.22
2022-08-22T04:46:01.929Z,99786.77
2022-08-22T04:51:23.281Z,99782.89
2022-08-22T04:54:10.791Z,99775.12
2022-08-22T04:56:46.271Z,99785.83
2022-08-22T04:59:20.734Z,99774.27
2022-08-22T05:01:59.344Z,99782.28
2022-08-22T05:04:35.866Z,99775.83
2022-08-22T05:07:12.858Z,99786.05
2022-08-22T05:09:49.434Z,99783.20
2022-08-22T05:12:26.185Z,99793.82
2022-08-22T05:17:46.761Z,99788.66
2022-08-22T05:20:23.584Z,99785.54
2022-08-22T05:22:59.912Z,99786.40
2022-08-22T05:25:36.952Z,99779.00
2022-08-22T05:28:14.037Z,99789.41
2022-08-22T05:30:48.957Z,99785.80
2022-08-22T05:33:25.228Z,99778.44
2022-08-22T05:36:01.875Z,99785.71
2022-08-22T05:38:38.240Z,99781.55
2022-08-22T05:41:14.940Z,99774.66
2022-08-22T05:43:50.297Z,99787.55
2022-08-22T05:46:27.067Z,99780.33
2022-08-22T05:49:04.021Z,99775.79
2022-08-22T05:51:40.225Z,99766.64
2022-08-22T05:54:16.679Z,99769.00
2022-08-22T05:56:53.199Z,99766.27
2022-08-22T05:59:29.249Z,99767.02
2022-08-22T06:02:06.965Z,99767.35
2022-08-22T06:04:43.923Z,99776.83
2022-08-22T06:07:22.311Z,99767.78
2022-08-22T06:10:15.669Z,99767.95
2022-08-22T06:12:53.514Z,99765.39
2022-08-22T06:15:31.319Z,99762.09
2022-08-22T06:18:10.443Z,99766.25
2022-08-22T06:20:47.050Z,99754.28
2022-08-22T06:23:23.554Z,99758.34
2022-08-22T06:26:00.299Z,99765.58
2022-08-22T06:28:37.128Z,99762.89
2022-08-22T06:31:15.924Z,99765.75
2022-08-22T06:33:52.257Z,99770.13
2022-08-22T06:36:34.224Z,99776.42
2022-08-22T06:39:15.879Z,99783.31
2022-08-22T06:41:54.005Z,99785.59
2022-08-22T06:44:32.328Z,99782.90
2022-08-22T06:47:11.765Z,99769.83
2022-08-22T06:49:47.323Z,99769.73
2022-08-22T06:52:23.821Z,99768.14
2022-08-22T06:55:01.063Z,99776.20
2022-08-22T06:57:40.708Z,99777.76
2022-08-22T07:00:18.389Z,99775.09
2022-08-22T07:02:51.951Z,99775.86
2022-08-22T07:05:28.992Z,99772.56
2022-08-22T07:08:08.657Z,99763.66
2022-08-22T07:10:45.721Z,99777.20
2022-08-22T07:13:21.032Z,99771.87
2022-08-22T07:15:56.989Z,99779.20
2022-08-22T07:18:33.270Z,99791.33
2022-08-22T07:21:09.421Z,99780.00
2022-08-22T07:23:47.068Z,99770.86
2022-08-22T07:26:24.388Z,99781.20
2022-08-22T07:29:00.702Z,99774.75
2022-08-22T07:31:40.100Z,99782.23
2022-08-22T07:34:24.010Z,99768.76
2022-08-22T07:37:02.415Z,99770.84
2022-08-22T07:39:39.339Z,99776.98
2022-08-22T07:42:18.993Z,99778.13
2022-08-22T07:45:00.877Z,99780.61
2022-08-22T07:47:56.059Z,99791.73
2022-08-22T07:50:35.298Z,99778.54
2022-08-22T07:53:11.994Z,99774.80
2022-08-22T07:55:49.917Z,99776.22
2022-08-22T07:58:26.400Z,99780.98
2022-08-22T08:01:01.106Z,99771.95
2022-08-22T08:03:35.515Z,99787.37
2022-08-22T08:06:10.296Z,99781.98
2022-08-22T08:08:46.320Z,99782.65
2022-08-22T08:11:21.753Z,99783.61
2022-08-22T08:13:58.943Z,99775.78
2022-08-22T08:16:37.932Z,99769.38
2022-08-22T08:19:13.991Z,99772.73
2022-08-22T08:21:50.843Z,99764.19
2022-08-22T08:24:27.695Z,99769.33
2022-08-22T08:27:22.750Z,99771.30
2022-08-22T08:29:59.216Z,99773.20
2022-08-22T08:32:36.821Z,99775.27
2022-08-22T08:35:14.249Z,99778.06
2022-08-22T08:37:51.556Z,99775.91
2022-08-22T08:40:32.896Z,99778.18
2022-08-22T08:43:30.113Z,99778.16
2022-08-22T08:46:58.734Z,99764.28
2022-08-22T08:50:04.805Z,99764.77
2022-08-22T08:52:51.044Z,99776.64
2022-08-22T08:55:29.638Z,99775.61
2022-08-22T08:58:17.674Z,99784.44
2022-08-22T09:00:59.322Z,99770.91
2022-08-22T09:07:22.647Z,99782.91
2022-08-22T09:10:06.498Z,99773.28
2022-08-22T09:12:56.143Z,99779.91
2022-08-22T09:18:25.071Z,99781.67
2022-08-22T09:21:32.791Z,99775.80
2022-08-22T09:24:16.735Z,99779.67
2022-08-22T09:26:53.366Z,99775.36
2022-08-22T09:29:54.962Z,99785.41
2022-08-22T09:32:23.983Z,99787.14
2022-08-22T09:35:05.473Z,99770.22
2022-08-22T09:37:46.579Z,99788.29
2022-08-22T09:43:03.377Z,99790.92
2022-08-22T09:45:51.395Z,99785.00
2022-08-22T09:48:51.352Z,99778.52
2022-08-22T09:54:32.997Z,99781.92
2022-08-22T09:57:19.856Z,99778.76
2022-08-22T10:00:00.224Z,99784.88
2022-08-22T10:02:43.371Z,99772.75
2022-08-22T10:05:41.080Z,99764.41
2022-08-22T10:08:12.973Z,99779.33
2022-08-22T10:11:06.645Z,99758.30
2022-08-22T10:13:57.536Z,99765.77
2022-08-22T10:16:38.961Z,99776.28
2022-08-22T10:19:18.881Z,99775.80
2022-08-22T10:22:15.851Z,99770.28
2022-08-22T10:24:54.641Z,99776.34
2022-08-22T10:27:34.551Z,99782.81
2022-08-22T10:30:13.375Z,99782.70
2022-08-22T10:32:50.258Z,99781.01
2022-08-22T10:35:25.459Z,99784.56
2022-08-22T10:38:02.187Z,99785.59
2022-08-22T10:40:40.396Z,99799.30
2022-08-22T10:43:16.831Z,99779.96
2022-08-22T10:45:53.449Z,99784.75
2022-08-22T10:48:33.785Z,99785.77
2022-08-22T10:51:16.505Z,99785.15
2022-08-22T10:56:59.431Z,99784.53
2022-08-22T10:59:40.409Z,99799.94
2022-08-22T11:02:53.195Z,99789.98
2022-08-22T11:05:44.842Z,99790.97
2022-08-22T11:09:07.826Z,99802.50
2022-08-22T11:11:47.954Z,99784.14
2022-08-22T11:14:29.562Z,99794.84
2022-08-22T11:17:27.392Z,99790.57
2022-08-22T11:19:53.343Z,99792.08
2022-08-22T11:22:34.979Z,99792.96
2022-08-22T11:25:38.849Z,99766.36
2022-08-22T11:28:37.590Z,99773.30
2022-08-22T11:31:16.614Z,99762.34
2022-08-22T11:33:54.916Z,99784.91
2022-08-22T11:36:32.192Z,99763.75
2022-08-22T11:39:18.399Z,99759.86
2022-08-22T11:41:52.769Z,99764.20
2022-08-22T11:44:31.342Z,99768.85
2022-08-22T11:47:11.155Z,99760.36
2022-08-22T11:50:13.551Z,99763.00
2022-08-22T11:53:01.496Z,99748.54
2022-08-22T11:55:39.384Z,99754.94
2022-08-22T11:58:28.686Z,99743.93
2022-08-22T12:00:59.429Z,99745.77
2022-08-22T12:03:45.122Z,99736.91
2022-08-22T12:06:49.714Z,99730.05
2022-08-22T12:09:45.550Z,99747.63
2022-08-22T12:12:42.169Z,99756.28
2022-08-22T12:15:21.313Z,99746.08
2022-08-22T12:21:47.119Z,99739.14
2022-08-22T12:24:35.739Z,99739.72
2022-08-22T12:27:28.449Z,99747.45
2022-08-22T12:30:03.295Z,99744.19
2022-08-22T12:32:50.416Z,99743.63
2022-08-22T12:35:48.477Z,99741.98
2022-08-22T12:38:38.084Z,99759.00
2022-08-22T12:41:28.439Z,99746.20
2022-08-22T12:43:59.690Z,99753.30
2022-08-22T12:46:47.410Z,99743.70
2022-08-22T12:49:36.025Z,99749.23
2022-08-22T12:52:20.164Z,99745.11
2022-08-22T12:55:10.976Z,99754.67
2022-08-22T12:57:50.298Z,99753.30
2022-08-22T13:00:30.152Z,99740.08
2022-08-22T13:03:06.187Z,99749.77
2022-08-22T13:05:42.161Z,99754.20
2022-08-22T13:08:23.864Z,99748.92
2022-08-22T13:11:03.361Z,99749.30
2022-08-22T13:13:41.403Z,99755.34
2022-08-22T13:16:19.229Z,99754.94
2022-08-22T13:18:55.990Z,99749.55
2022-08-22T13:21:34.730Z,99751.03
2022-08-22T13:24:11.497Z,99734.86
2022-08-22T13:26:51.751Z,99753.44
2022-08-22T13:29:39.464Z,99742.18
2022-08-22T13:32:04.675Z,99756.23
2022-08-22T13:34:43.702Z,99736.34
2022-08-22T13:37:20.231Z,99744.20
2022-08-22T13:39:58.067Z,99753.48
2022-08-22T13:42:35.097Z,99750.61
2022-08-22T13:45:14.829Z,99723.08
2022-08-22T13:47:55.305Z,99727.64
2022-08-22T13:50:37.048Z,99737.11
2022-08-22T13:53:09.764Z,99747.91
2022-08-22T13:55:49.201Z,99731.28
2022-08-22T13:58:25.678Z,99726.80
2022-08-22T14:01:05.078Z,99731.04
2022-08-22T14:03:48.450Z,99733.76
2022-08-22T14:06:35.434Z,99725.14
2022-08-22T14:09:08.447Z,99727.05
2022-08-22T14:11:41.974Z,99709.12
2022-08-22T14:14:17.309Z,99726.27
2022-08-22T14:16:55.088Z,99725.05
2022-08-22T14:19:30.571Z,99733.57
2022-08-22T14:22:07.803Z,99730.45
2022-08-22T14:24:46.560Z,99724.76
2022-08-22T14:27:33.061Z,99731.72
2022-08-22T14:30:11.581Z,99733.62
2022-08-22T14:32:49.000Z,99743.77
2022-08-22T14:35:34.633Z,99721.73
2022-08-22T14:38:05.339Z,99728.72
2022-08-22T14:40:42.065Z,99750.13
2022-08-22T14:43:22.460Z,99740.12
2022-08-22T14:46:01.997Z,99732.33
2022-08-22T14:48:40.753Z,99735.69
2022-08-22T14:51:21.341Z,99727.53
2022-08-22T14:53:56.300Z,99725.83
2022-08-22T14:56:33.632Z,99729.98
2022-08-22T14:59:10.986Z,99710.79
2022-08-22T15:01:58.354Z,99719.66
2022-08-22T15:04:36.746Z,99724.48
2022-08-22T15:07:12.011Z,99721.05
2022-08-22T15:09:48.127Z,99723.17
2022-08-22T15:12:28.181Z,99728.73
2022-08-22T15:15:04.599Z,99729.77
2022-08-22T15:17:44.377Z,99724.48
2022-08-22T15:20:28.658Z,99731.88
2022-08-22T15:23:10.052Z,99737.48
2022-08-22T15:25:47.091Z,99732.95
2022-08-22T15:28:21.701Z,99724.30
2022-08-22T15:31:05.932Z,99727.20
2022-08-22T15:33:43.426Z,99723.94
2022-08-22T15:36:20.275Z,99716.17
2022-08-22T15:38:56.003Z,99723.57
2022-08-22T15:41:40.207Z,99732.80
2022-08-22T15:44:17.265Z,99721.47
2022-08-22T15:47:02.173Z,99730.77
2022-08-22T15:49:38.587Z,99735.47
2022-08-22T15:52:24.169Z,99711.36
2022-08-22T15:58:16.351Z,99741.36
2022-08-22T16:00:57.151Z,99730.16
2022-08-22T16:03:34.448Z,99741.37
2022-08-22T16:06:11.593Z,99741.84
2022-08-22T16:08:51.828Z,99743.19
2022-08-22T16:11:33.412Z,99740.97
2022-08-22T16:14:25.284Z,99735.17
2022-08-22T16:17:04.117Z,99744.57
2022-08-22T16:19:41.312Z,99750.50
2022-08-22T16:22:17.339Z,99749.80
2022-08-22T16:25:10.199Z,99744.66
2022-08-22T16:27:58.818Z,99755.69
2022-08-22T16:30:40.439Z,99759.77
2022-08-22T16:33:18.399Z,99759.52
2022-08-22T16:36:18.880Z,99755.63
2022-08-22T16:38:54.897Z,99768.53
2022-08-22T16:41:40.026Z,99767.27
2022-08-22T16:44:23.709Z,99766.66
2022-08-22T16:47:00.679Z,99765.41
2022-08-22T16:49:36.827Z,99771.19
2022-08-22T16:52:44.909Z,99768.84
2022-08-22T16:56:01.564Z,99769.08
2022-08-22T16:59:19.587Z,99773.83
2022-08-22T17:01:49.987Z,99769.58
2022-08-22T17:04:27.999Z,99780.58
2022-08-22T17:07:14.410Z,99779.02
2022-08-22T17:09:59.005Z,99774.69
2022-08-22T17:12:42.959Z,99782.11
2022-08-22T17:15:22.551Z,99776.89
2022-08-22T17:18:11.753Z,99782.44
2022-08-22T17:20:48.869Z,99784.49
2022-08-22T17:23:28.963Z,99777.53
2022-08-22T17:26:05.994Z,99792.91
2022-08-22T17:28:42.625Z,99788.75
2022-08-22T17:31:20.138Z,99788.12
2022-08-22T17:33:56.918Z,99788.12
2022-08-22T17:36:36.748Z,99790.80
2022-08-22T17:39:15.163Z,99793.92
2022-08-22T17:41:52.400Z,99785.26
2022-08-22T17:44:29.231Z,99796.06
2022-08-22T17:47:05.588Z,99781.98
2022-08-22T17:49:49.137Z,99788.28
2022-08-22T17:52:27.057Z,99784.71
2022-08-22T17:55:03.717Z,99786.53
2022-08-22T17:57:38.956Z,99793.64
2022-08-22T18:00:18.544Z,99788.28
2022-08-22T18:02:58.363Z,99789.13
2022-08-22T18:05:35.377Z,99790.02
2022-08-22T18:08:37.380Z,99788.19
2022-08-22T18:10:51.963Z,99786.45
2022-08-22T18:13:35.397Z,99792.75
2022-08-22T18:16:15.443Z,99788.36
2022-08-22T18:18:52.531Z,99800.10
2022-08-22T18:21:29.106Z,99801.90
2022-08-22T18:24:05.774Z,99802.92
2022-08-22T18:26:43.768Z,99799.47
2022-08-22T18:29:23.195Z,99806.70
2022-08-22T18:31:59.925Z,99802.37
2022-08-22T18:34:40.981Z,99804.19
2022-08-22T18:37:22.156Z,99799.77
2022-08-22T18:40:01.473Z,99805.27
2022-08-22T18:42:37.963Z,99795.66
2022-08-22T18:45:18.629Z,99802.75
2022-08-22T18:48:00.270Z,99807.17
2022-08-22T18:50:36.868Z,99791.31
2022-08-22T18:56:25.699Z,99802.59
2022-08-22T18:59:10.335Z,99804.20
2022-08-22T19:01:54.192Z,99792.77
2022-08-22T19:08:08.875Z,99784.16
2022-08-22T19:10:53.233Z,99795.74
2022-08-22T19:13:39.198Z,99803.45
2022-08-22T19:16:24.812Z,99789.50
2022-08-22T19:19:01.385Z,99795.06
2022-08-22T19:21:54.212Z,99797.91
2022-08-22T19:24:59.525Z,99792.60
2022-08-22T19:33:27.680Z,99799.78
2022-08-22T19:36:13.324Z,99805.94
2022-08-22T19:39:09.028Z,99812.30
2022-08-22T19:41:51.730Z,99807.15
2022-08-22T19:44:45.777Z,99819.02
2022-08-22T19:47:30.170Z,99811.11
2022-08-22T19:50:07.763Z,99814.72
2022-08-22T19:53:02.301Z,99816.59
2022-08-22T19:55:45.256Z,99813.98
2022-08-22T19:58:31.704Z,99811.47
2022-08-22T20:01:00.758Z,99810.66
2022-08-22T20:03:37.738Z,99813.56
2022-08-22T20:06:33.624Z,99816.16
2022-08-22T20:09:00.809Z,99814.69
2022-08-22T20:11:42.512Z,99826.39
2022-08-22T20:14:30.519Z,99823.06
2022-08-22T20:17:10.477Z,99833.98
2022-08-22T20:22:25.684Z,99831.77
2022-08-22T20:25:02.535Z,99835.44
2022-08-22T20:27:39.603Z,99833.92
2022-08-22T20:30:16.782Z,99836.85
2022-08-22T20:32:53.979Z,99840.75
2022-08-22T20:35:31.082Z,99840.11
2022-08-22T20:38:16.260Z,99834.95
2022-08-22T20:40:56.058Z,99847.38
2022-08-22T20:43:21.205Z,99846.82
2022-08-22T20:45:57.999Z,99852.31
2022-08-22T20:48:38.955Z,99845.36
2022-08-22T20:51:16.779Z,99847.28
2022-08-22T20:53:53.554Z,99852.84
2022-08-22T20:56:48.645Z,99858.11
2022-08-22T20:59:24.785Z,99862.84
2022-08-22T21:02:03.192Z,99861.27
2022-08-22T21:04:44.652Z,99866.75
2022-08-22T21:07:26.217Z,99869.59
2022-08-22T21:10:22.753Z,99874.15
2022-08-22T21:13:11.331Z,99870.80
2022-08-22T21:15:47.674Z,99872.77
2022-08-22T21:18:31.160Z,99871.17
2022-08-22T21:21:17.188Z,99881.16
2022-08-22T21:23:47.949Z,99877.59
2022-08-22T21:26:27.656Z,99875.85
2022-08-22T21:29:04.115Z,99886.59
2022-08-22T21:31:41.753Z,99878.63
2022-08-22T21:34:21.283Z,99882.22
2022-08-22T21:36:57.973Z,99888.47
2022-08-22T21:39:34.338Z,99883.20
2022-08-22T21:42:18.052Z,99889.46
2022-08-22T21:45:00.414Z,99888.67
2022-08-22T21:47:37.666Z,99898.52
2022-08-22T21:50:19.013Z,99897.83
2022-08-22T21:53:05.982Z,99904.69
2022-08-22T21:55:44.532Z,99911.77
2022-08-22T21:58:36.972Z,99913.48
2022-08-22T22:01:29.147Z,99911.77
2022-08-22T22:04:02.620Z,99911.80
2022-08-22T22:06:36.033Z,99919.88
2022-08-22T22:09:14.524Z,99919.09
2022-08-22T22:11:45.232Z,99921.75
2022-08-22T22:14:18.734Z,99921.82
2022-08-22T22:16:52.350Z,99922.61
2022-08-22T22:19:26.065Z,99927.95
2022-08-22T22:21:59.742Z,99931.61
2022-08-22T22:24:33.116Z,99928.08
2022-08-22T22:27:07.740Z,99924.52
2022-08-22T22:29:41.211Z,99927.19
2022-08-22T22:32:15.293Z,99923.66
2022-08-22T22:34:48.848Z,99932.59
2022-08-22T22:37:22.350Z,99934.47
2022-08-22T22:39:56.213Z,99929.16
2022-08-22T22:42:29.698Z,99939.90
2022-08-22T22:45:03.540Z,99937.30
2022-08-22T22:47:38.191Z,99931.19
2022-08-22T22:50:12.174Z,99933.92
2022-08-22T22:52:45.597Z,99932.17
2022-08-22T22:55:24.308Z,99932.17
2022-08-22T22:57:59.276Z,99928.72
2022-08-22T23:00:33.409Z,99926.97
2022-08-22T23:03:07.949Z,99932.17
2022-08-22T23:05:41.500Z,99934.75
2022-08-22T23:08:15.101Z,99937.42
2022-08-22T23:10:48.625Z,99935.73
2022-08-22T23:13:22.369Z,99938.50
2022-08-22T23:15:55.965Z,99941.10
2022-08-22T23:18:32.060Z,99932.17
2022-08-22T23:21:16.571Z,99933.92
2022-08-22T23:23:50.658Z,99939.26
2022-08-22T23:26:24.479Z,99936.59
2022-08-22T23:28:58.741Z,99939.39
2022-08-22T23:31:35.217Z,99937.64
2022-08-22T23:34:11.186Z,99936.72
2022-08-22T23:36:47.190Z,99937.64
2022-08-22T23:39:21.999Z,99941.30
2022-08-22T23:41:55.755Z,99944.81
2022-08-22T23:44:31.812Z,99936.88
2022-08-22T23:47:06.544Z,99940.46
2022-08-22T23:49:43.846Z,99937.86
2022-08-22T23:52:24.134Z,99937.98
2022-08-22T23:54:57.688Z,99939.95
2022-08-22T23:57:31.254Z,99946.35
